^^
Your Local Weather - Clay, NY Station Historical Data
Daily Summary for March 28, 2017 Units:  Metric    English   Both
« Previous Day
Next Day »
Daily Weekly Monthly Yearly Custom
  High: Low: Average:
Temperature: 10.2 °C 3.5 °C 5.9 °C
Dew Point: 7.7 °C 1.7 °C 4.2 °C
Humidity: 93% 83% 89%
Wind Speed: 8km/h 0km/h 2.3km/h
Wind Gust: 16.1km/h - -
Wind- - West
Pressure: 1018.5 hPa 1010.4 hPa -
Precipitation: 0 mm    
Historical Graphs
 
 
Tabular Data for March 28, 2017
Time Temperature Dew Point Pressure Wind Wind Speed Wind Gust Humidity Rainfall Rate (Hourly) solar
00:00 4.3 °C 2.6 °C 1012.4 hPa Calm   4.8 km/h 89% 0 mm 0 W/m2
00:06 4.3 °C 2.7 °C 1012.4 hPa Calm   4.8 km/h 89% 0 mm 0 W/m2
00:12 4.3 °C 2.8 °C 1012.4 hPa Calm   1.6 km/h 90% 0 mm 0 W/m2
00:18 4.2 °C 2.6 °C 1012.4 hPa NE 1.6 km/h 4.8 km/h 89% 0 mm 0 W/m2
00:24 4.2 °C 2.5 °C 1012.4 hPa NE 1.6 km/h 1.6 km/h 89% 0 mm 0 W/m2
00:30 4.3 °C 2.8 °C 1012.4 hPa Calm   3.2 km/h 90% 0 mm 0 W/m2
00:36 4.3 °C 2.8 °C 1012.4 hPa Calm   3.2 km/h 90% 0 mm 0 W/m2
00:42 4.2 °C 2.5 °C 1012.1 hPa Calm     89% 0 mm 0 W/m2
00:48 4.3 °C 2.8 °C 1012.4 hPa ENE 1.6 km/h 1.6 km/h 90% 0 mm 0 W/m2
00:54 4.3 °C 2.8 °C 1012.4 hPa Calm   1.6 km/h 90% 0 mm 0 W/m2
01:00 4.4 °C 2.9 °C 1012.4 hPa Calm     90% 0 mm 0 W/m2
01:06 4.4 °C 2.9 °C 1012.4 hPa Calm     90% 0 mm 0 W/m2
01:12 4.4 °C 2.8 °C 1012.4 hPa Calm     89% 0 mm 0 W/m2
01:18 4.4 °C 2.7 °C 1012.4 hPa Calm     89% 0 mm 0 W/m2
01:24 4.3 °C 2.6 °C 1012.1 hPa Calm     89% 0 mm 0 W/m2
01:30 4.2 °C 2.5 °C 1012.4 hPa Calm   4.8 km/h 89% 0 mm 0 W/m2
01:36 4.3 °C 2.8 °C 1012.1 hPa ENE 1.6 km/h 4.8 km/h 90% 0 mm 0 W/m2
01:42 4.3 °C 2.8 °C 1012.1 hPa ENE 1.6 km/h 1.6 km/h 90% 0 mm 0 W/m2
01:48 4.3 °C 2.8 °C 1012.1 hPa ENE 1.6 km/h 1.6 km/h 90% 0 mm 0 W/m2
01:54 4.3 °C 2.8 °C 1012.1 hPa ENE 1.6 km/h 3.2 km/h 90% 0 mm 0 W/m2
02:00 4.3 °C 2.8 °C 1012.1 hPa ENE 1.6 km/h 1.6 km/h 90% 0 mm 0 W/m2
02:06 4.3 °C 2.8 °C 1012.1 hPa Calm   1.6 km/h 90% 0 mm 0 W/m2
02:12 4.2 °C 2.6 °C 1012.1 hPa Calm     89% 0 mm 0 W/m2
02:18 4.1 °C 2.6 °C 1012.1 hPa Calm   1.6 km/h 90% 0 mm 0 W/m2
02:24 4 °C 2.5 °C 1012.1 hPa Calm   1.6 km/h 90% 0 mm 0 W/m2
02:30 4.1 °C 2.6 °C 1011.7 hPa Calm   3.2 km/h 90% 0 mm 0 W/m2
02:36 4 °C 2.5 °C 1011.7 hPa ENE 1.6 km/h 3.2 km/h 90% 0 mm 0 W/m2
02:42 4.1 °C 2.6 °C 1011.7 hPa Calm   3.2 km/h 90% 0 mm 0 W/m2
02:48 4.2 °C 2.7 °C 1011.7 hPa Calm   3.2 km/h 90% 0 mm 0 W/m2
02:54 4.3 °C 2.8 °C 1011.7 hPa Calm   1.6 km/h 90% 0 mm 0 W/m2
03:00 4.2 °C 2.7 °C 1011.7 hPa Calm     90% 0 mm 0 W/m2
03:06 4.1 °C 2.6 °C 1011.4 hPa Calm     90% 0 mm 0 W/m2
03:12 3.9 °C 2.4 °C 1011.4 hPa Calm     90% 0 mm 0 W/m2
03:18 3.9 °C 2.4 °C 1011.4 hPa Calm     90% 0 mm 0 W/m2
03:24 3.9 °C 2.4 °C 1011.4 hPa Calm   1.6 km/h 90% 0 mm 0 W/m2
03:30 4.1 °C 2.7 °C 1011.4 hPa Calm     91% 0 mm 0 W/m2
03:36 4.2 °C 2.8 °C 1011.4 hPa Calm     91% 0 mm 0 W/m2
03:42 4.2 °C 2.8 °C 1011.4 hPa Calm     91% 0 mm 0 W/m2
03:48 4.1 °C 2.7 °C 1011.1 hPa Calm   1.6 km/h 91% 0 mm 0 W/m2
03:54 4.1 °C 2.8 °C 1011.1 hPa Calm     91% 0 mm 0 W/m2
04:00 4.2 °C 2.9 °C 1011.1 hPa Calm     91% 0 mm 0 W/m2
04:06 4.1 °C 2.8 °C 1011.1 hPa ENE 1.6 km/h 1.6 km/h 91% 0 mm 0 W/m2
04:12 4 °C 2.7 °C 1011.1 hPa ENE 1.6 km/h 1.6 km/h 91% 0 mm 0 W/m2
04:18 4.2 °C 3.1 °C 1011.1 hPa Calm   1.6 km/h 92% 0 mm 0 W/m2
04:24 4.2 °C 3.1 °C 1011.1 hPa Calm   1.6 km/h 92% 0 mm 0 W/m2
04:30 4.2 °C 3.1 °C 1010.7 hPa Calm     92% 0 mm 0 W/m2
04:36 4.3 °C 3.1 °C 1010.7 hPa ENE 1.6 km/h 3.2 km/h 92% 0 mm 0 W/m2
04:42 4.3 °C 3.2 °C 1010.7 hPa ENE 1.6 km/h 1.6 km/h 92% 0 mm 0 W/m2
04:48 4.2 °C 3 °C 1010.7 hPa ENE 1.6 km/h 3.2 km/h 92% 0 mm 0 W/m2
04:54 3.8 °C 2.7 °C 1010.7 hPa ENE 1.6 km/h 3.2 km/h 92% 0 mm 0 W/m2
05:00 3.6 °C 2.2 °C 1010.7 hPa ENE 1.6 km/h 1.6 km/h 91% 0 mm 0 W/m2
05:06 3.5 °C 2.2 °C 1010.7 hPa ENE 1.6 km/h 1.6 km/h 91% 0 mm 0 W/m2
05:12 3.8 °C 2.6 °C 1010.7 hPa Calm     92% 0 mm 0 W/m2
05:18 3.9 °C 2.8 °C 1010.4 hPa Calm     92% 0 mm 0 W/m2
05:24 4 °C 2.8 °C 1010.4 hPa Calm   1.6 km/h 92% 0 mm 0 W/m2
05:30 3.9 °C 2.8 °C 1010.4 hPa Calm   3.2 km/h 92% 0 mm 0 W/m2
05:36 3.9 °C 2.8 °C 1010.4 hPa Calm   3.2 km/h 92% 0 mm 0 W/m2
05:42 3.9 °C 2.7 °C 1010.4 hPa Calm     92% 0 mm 0 W/m2
05:48 4.1 °C 2.9 °C 1010.4 hPa Calm     92% 0 mm 0 W/m2
05:54 4.2 °C 3.1 °C 1010.4 hPa Calm   1.6 km/h 93% 0 mm 0 W/m2
06:00 4.2 °C 3.2 °C 1010.4 hPa Calm     93% 0 mm 0 W/m2
06:06 4.1 °C 3.1 °C 1010.4 hPa Calm     93% 0 mm 0 W/m2
06:12 4.1 °C 2.9 °C 1010.7 hPa Calm     92% 0 mm 0 W/m2
06:18 4 °C 2.8 °C 1010.7 hPa Calm     92% 0 mm 0 W/m2
06:24 3.9 °C 2.8 °C 1010.7 hPa Calm     92% 0 mm 0 W/m2
06:30 3.9 °C 2.7 °C 1010.7 hPa Calm     92% 0 mm 0 W/m2
06:36 3.9 °C 2.8 °C 1010.7 hPa Calm     92% 0 mm 0 W/m2
06:42 4.1 °C 3.1 °C 1010.7 hPa Calm     93% 0 mm 0 W/m2
06:48 4.3 °C 3.2 °C 1011.1 hPa Calm     93% 0 mm 0 W/m2
06:54 4.3 °C 3.3 °C 1011.1 hPa Calm     93% 0 mm 0 W/m2
07:00 4.3 °C 3.3 °C 1011.1 hPa Calm     93% 0 mm 0 W/m2
07:06 4.4 °C 3.3 °C 1011.1 hPa Calm     93% 0 mm 0 W/m2
07:12 4.4 °C 3.4 °C 1011.4 hPa Calm     93% 0 mm 5 W/m2
07:18 4.4 °C 3.4 °C 1011.4 hPa Calm     93% 0 mm 11 W/m2
07:24 4.4 °C 3.3 °C 1011.4 hPa Calm     93% 0 mm 12 W/m2
07:30 4.6 °C 3.6 °C 1011.4 hPa Calm     93% 0 mm 14 W/m2
07:36 4.7 °C 3.7 °C 1011.4 hPa Calm   1.6 km/h 93% 0 mm 19 W/m2
07:42 4.8 °C 3.7 °C 1011.4 hPa Calm     93% 0 mm 25 W/m2
07:48 4.8 °C 3.8 °C 1011.4 hPa Calm     93% 0 mm 23 W/m2
07:54 4.9 °C 3.9 °C 1011.4 hPa Calm     93% 0 mm 26 W/m2
08:00 4.9 °C 3.8 °C 1011.4 hPa Calm     93% 0 mm 44 W/m2
08:06 4.8 °C 3.8 °C 1011.4 hPa Calm     93% 0 mm 58 W/m2
08:12 5 °C 3.9 °C 1011.7 hPa Calm     93% 0 mm 69 W/m2
08:18 5.3 °C 4.2 °C 1011.7 hPa Calm     93% 0 mm 81 W/m2
08:24 5.4 °C 4.3 °C 1011.7 hPa Calm     93% 0 mm 84 W/m2
08:30 5.4 °C 4.4 °C 1011.7 hPa Calm     93% 0 mm 90 W/m2
08:36 5.6 °C 4.5 °C 1011.7 hPa ENE 1.6 km/h 3.2 km/h 93% 0 mm 98 W/m2
08:42 5.7 °C 4.7 °C 1011.7 hPa ENE 1.6 km/h 1.6 km/h 93% 0 mm 95 W/m2
08:48 5.8 °C 4.8 °C 1011.7 hPa Calm   1.6 km/h 93% 0 mm 102 W/m2
08:54 5.9 °C 4.9 °C 1011.7 hPa Calm     93% 0 mm 98 W/m2
09:00 6.1 °C 4.8 °C 1012.1 hPa Calm     92% 0 mm 63 W/m2
09:06 6.1 °C 4.9 °C 1012.1 hPa Calm     92% 0 mm 65 W/m2
09:12 6.1 °C 4.9 °C 1012.1 hPa Calm     92% 0 mm 91 W/m2
09:18 6.2 °C 5 °C 1012.1 hPa Calm     92% 0 mm 86 W/m2
09:24 6.3 °C 4.9 °C 1012.1 hPa Calm     91% 0 mm 86 W/m2
09:30 6.4 °C 5 °C 1012.1 hPa Calm     91% 0 mm 88 W/m2
09:36 6.5 °C 5.1 °C 1012.1 hPa Calm     91% 0 mm 77 W/m2
09:44 6.6 °C 5.1 °C 1012.1 hPa Calm     90% 0 mm 86 W/m2
09:50 6.7 °C 5.2 °C 1012.1 hPa Calm     90% 0 mm 93 W/m2
09:56 6.8 °C 5.3 °C 1012.1 hPa Calm     90% 0 mm 105 W/m2
10:02 6.9 °C 5.4 °C 1012.1 hPa Calm     90% 0 mm 125 W/m2
10:08 7.1 °C 5.4 °C 1012.1 hPa Calm   3.2 km/h 89% 0 mm 134 W/m2
10:14 7.2 °C 5.5 °C 1012.1 hPa Calm     89% 0 mm 137 W/m2
10:20 7.3 °C 5.4 °C 1012.1 hPa Calm     88% 0 mm 158 W/m2
10:26 7.4 °C 5.6 °C 1012.1 hPa Calm     88% 0 mm 171 W/m2
10:32 7.6 °C 5.7 °C 1012.1 hPa ENE 1.6 km/h 3.2 km/h 88% 0 mm 195 W/m2
10:38 7.8 °C 5.9 °C 1012.1 hPa ENE 1.6 km/h 3.2 km/h 88% 0 mm 332 W/m2
10:44 8.2 °C 6.1 °C 1011.7 hPa Calm   1.6 km/h 87% 0 mm 473 W/m2
10:50 8.6 °C 6.5 °C 1012.1 hPa East 1.6 km/h 1.6 km/h 87% 0 mm 355 W/m2
10:56 8.8 °C 6.6 °C 1012.1 hPa East 1.6 km/h 3.2 km/h 86% 0 mm 338 W/m2
11:02 8.9 °C 6.5 °C 1012.1 hPa East 1.6 km/h 3.2 km/h 85% 0 mm 346 W/m2
11:08 9.3 °C 7.1 °C 1012.1 hPa ESE 1.6 km/h 4.8 km/h 86% 0 mm 355 W/m2
11:14 9.4 °C 7.1 °C 1012.1 hPa Calm   1.6 km/h 85% 0 mm 330 W/m2
11:20 9.6 °C 7 °C 1012.1 hPa SSW 1.6 km/h 3.2 km/h 84% 0 mm 315 W/m2
11:26 9.6 °C 7.1 °C 1012.1 hPa SSW 1.6 km/h 3.2 km/h 84% 0 mm 243 W/m2
11:32 9.8 °C 7.3 °C 1012.1 hPa SW 1.6 km/h 4.8 km/h 84% 0 mm 248 W/m2
11:38 9.8 °C 7.1 °C 1012.1 hPa WNW 1.6 km/h 4.8 km/h 83% 0 mm 260 W/m2
11:44 9.8 °C 7.3 °C 1012.1 hPa WNW 1.6 km/h 1.6 km/h 84% 0 mm 318 W/m2
11:50 10.1 °C 7.5 °C 1012.1 hPa NW 1.6 km/h 1.6 km/h 84% 0 mm 290 W/m2
11:56 10.2 °C 7.6 °C 1012.1 hPa NW 3.2 km/h 3.2 km/h 84% 0 mm 204 W/m2
12:02 10.1 °C 7.3 °C 1012.1 hPa NW 3.2 km/h 3.2 km/h 83% 0 mm 158 W/m2
12:08 10.1 °C 7.5 °C 1012.1 hPa NW 3.2 km/h 3.2 km/h 84% 0 mm 162 W/m2
12:14 9.9 °C 7.4 °C 1012.1 hPa NW 1.6 km/h 4.8 km/h 84% 0 mm 181 W/m2
12:20 9.9 °C 7.5 °C 1012.1 hPa NW 3.2 km/h 4.8 km/h 85% 0 mm 167 W/m2
12:26 9.8 °C 7.4 °C 1012.1 hPa NW 3.2 km/h 4.8 km/h 85% 0 mm 153 W/m2
12:32 9.9 °C 7.7 °C 1012.1 hPa NNW 3.2 km/h 3.2 km/h 86% 0 mm 151 W/m2
12:38 9.8 °C 7.6 °C 1012.1 hPa WNW 3.2 km/h 4.8 km/h 86% 0 mm 132 W/m2
12:44 9.6 °C 7.3 °C 1012.1 hPa WNW 4.8 km/h 6.4 km/h 86% 0 mm 97 W/m2
12:50 9.4 °C 7.4 °C 1012.1 hPa NNW 4.8 km/h 8 km/h 87% 0 mm 79 W/m2
12:56 9.2 °C 7.2 °C 1012.1 hPa NW 3.2 km/h 8 km/h 87% 0 mm 67 W/m2
13:02 8.9 °C 7 °C 1012.1 hPa NNW 4.8 km/h 11.3 km/h 88% 0 mm 62 W/m2
13:08 8.7 °C 6.8 °C 1012.1 hPa NNW 3.2 km/h 11.3 km/h 88% 0 mm 77 W/m2
13:14 8.6 °C 6.9 °C 1012.1 hPa NNW 3.2 km/h 4.8 km/h 89% 0 mm 86 W/m2
13:20 8.6 °C 7.1 °C 1012.1 hPa NNW 1.6 km/h 1.6 km/h 90% 0 mm 84 W/m2
13:26 8.7 °C 7.1 °C 1012.1 hPa Calm   3.2 km/h 90% 0 mm 91 W/m2
13:32 8.7 °C 7.1 °C 1012.1 hPa NNW 1.6 km/h 1.6 km/h 90% 0 mm 84 W/m2
13:38 8.7 °C 7.1 °C 1012.1 hPa Calm   1.6 km/h 90% 0 mm 90 W/m2
13:44 8.7 °C 7.1 °C 1012.1 hPa NNW 1.6 km/h 4.8 km/h 90% 0 mm 100 W/m2
13:50 8.7 °C 7.1 °C 1012.1 hPa NNW 3.2 km/h 3.2 km/h 90% 0 mm 118 W/m2
13:56 8.7 °C 7.1 °C 1012.1 hPa WNW 3.2 km/h 6.4 km/h 90% 0 mm 127 W/m2
14:02 8.7 °C 7.3 °C 1012.1 hPa WNW 3.2 km/h 4.8 km/h 91% 0 mm 123 W/m2
14:08 8.5 °C 7.1 °C 1012.1 hPa WNW 3.2 km/h 4.8 km/h 91% 0 mm 142 W/m2
14:14 8.5 °C 7.1 °C 1012.1 hPa NW 4.8 km/h 8 km/h 91% 0 mm 167 W/m2
14:20 8.6 °C 7.2 °C 1012.1 hPa NW 4.8 km/h 6.4 km/h 91% 0 mm 163 W/m2
14:26 8.6 °C 7.2 °C 1012.1 hPa NNW 4.8 km/h 6.4 km/h 91% 0 mm 141 W/m2
14:32 8.6 °C 7.2 °C 1012.1 hPa NNW 4.8 km/h 4.8 km/h 91% 0 mm 160 W/m2
14:38 8.5 °C 7.1 °C 1012.1 hPa WNW 3.2 km/h 6.4 km/h 91% 0 mm 134 W/m2
14:46 8.4 °C 7.1 °C 1012.1 hPa WNW 3.2 km/h 3.2 km/h 91% 0 mm 109 W/m2
14:52 8.3 °C 6.9 °C 1012.1 hPa NW 3.2 km/h 4.8 km/h 91% 0 mm 111 W/m2
14:58 8.2 °C 6.8 °C 1012.1 hPa NW 3.2 km/h 4.8 km/h 91% 0 mm 116 W/m2
15:04 8.1 °C 6.7 °C 1012.1 hPa NW 3.2 km/h 3.2 km/h 91% 0 mm 105 W/m2
15:10 8 °C 6.6 °C 1012.1 hPa NW 3.2 km/h 4.8 km/h 91% 0 mm 100 W/m2
15:16 7.9 °C 6.5 °C 1012.4 hPa NW 3.2 km/h 4.8 km/h 91% 0 mm 120 W/m2
15:22 7.9 °C 6.5 °C 1012.4 hPa WNW 3.2 km/h 3.2 km/h 91% 0 mm 111 W/m2
15:28 7.9 °C 6.5 °C 1012.4 hPa WNW 3.2 km/h 3.2 km/h 91% 0 mm 105 W/m2
15:34 7.9 °C 6.6 °C 1012.4 hPa WNW 1.6 km/h 3.2 km/h 91% 0 mm 104 W/m2
15:40 7.9 °C 6.5 °C 1012.4 hPa WNW 1.6 km/h 3.2 km/h 91% 0 mm 90 W/m2
15:46 7.8 °C 6.4 °C 1012.4 hPa WNW 1.6 km/h 3.2 km/h 91% 0 mm 111 W/m2
15:52 7.9 °C 6.5 °C 1012.4 hPa WNW 1.6 km/h 3.2 km/h 91% 0 mm 125 W/m2
15:58 7.8 °C 6.4 °C 1012.4 hPa NW 3.2 km/h 9.7 km/h 91% 0 mm 111 W/m2
16:04 7.7 °C 6.3 °C 1012.4 hPa WNW 3.2 km/h 3.2 km/h 91% 0 mm 86 W/m2
16:10 7.6 °C 6.1 °C 1012.8 hPa WNW 3.2 km/h 4.8 km/h 90% 0 mm 86 W/m2
16:16 7.5 °C 5.9 °C 1012.8 hPa WNW 4.8 km/h 4.8 km/h 90% 0 mm 93 W/m2
16:22 7.4 °C 5.9 °C 1012.8 hPa WNW 4.8 km/h 4.8 km/h 90% 0 mm 88 W/m2
16:28 7.4 °C 5.7 °C 1012.8 hPa NW 4.8 km/h 6.4 km/h 89% 0 mm 84 W/m2
16:34 7.4 °C 5.7 °C 1013.1 hPa NW 3.2 km/h 4.8 km/h 89% 0 mm 79 W/m2
16:40 7.3 °C 5.7 °C 1013.1 hPa NNW 4.8 km/h 4.8 km/h 89% 0 mm 100 W/m2
16:46 7.3 °C 5.6 °C 1013.1 hPa NW 4.8 km/h 8 km/h 89% 0 mm 100 W/m2
16:52 7.2 °C 5.6 °C 1013.1 hPa WNW 4.8 km/h 4.8 km/h 89% 0 mm 70 W/m2
16:58 7 °C 5.3 °C 1013.1 hPa NW 3.2 km/h 6.4 km/h 89% 0 mm 53 W/m2
17:04 6.7 °C 5.1 °C 1013.1 hPa NW 4.8 km/h 8 km/h 89% 0 mm 47 W/m2
17:10 6.5 °C 5 °C 1013.1 hPa NW 4.8 km/h 4.8 km/h 90% 0 mm 39 W/m2
17:16 6.4 °C 4.9 °C 1013.4 hPa NW 4.8 km/h 4.8 km/h 90% 0 mm 62 W/m2
17:22 6.3 °C 4.8 °C 1013.4 hPa NW 4.8 km/h 4.8 km/h 90% 0 mm 44 W/m2
17:28 6.3 °C 4.8 °C 1013.4 hPa NW 4.8 km/h 4.8 km/h 90% 0 mm 49 W/m2
17:34 6.3 °C 4.8 °C 1013.4 hPa NW 3.2 km/h 4.8 km/h 90% 0 mm 49 W/m2
17:40 6.2 °C 4.7 °C 1013.4 hPa NNW 3.2 km/h 4.8 km/h 90% 0 mm 54 W/m2
17:46 6.2 °C 4.7 °C 1013.8 hPa NW 3.2 km/h 4.8 km/h 90% 0 mm 39 W/m2
17:52 6.2 °C 4.5 °C 1013.8 hPa NW 3.2 km/h 3.2 km/h 89% 0 mm 32 W/m2
17:58 6.1 °C 4.4 °C 1013.8 hPa NW 3.2 km/h 3.2 km/h 89% 0 mm 35 W/m2
18:04 6.1 °C 4.2 °C 1014.1 hPa WNW 3.2 km/h 6.4 km/h 88% 0 mm 25 W/m2
18:10 5.9 °C 4.1 °C 1014.1 hPa WNW 4.8 km/h 4.8 km/h 88% 0 mm 23 W/m2
18:16 5.9 °C 4.1 °C 1014.1 hPa NW 4.8 km/h 6.4 km/h 88% 0 mm 33 W/m2
18:22 5.9 °C 4.2 °C 1014.1 hPa NNW 3.2 km/h 3.2 km/h 89% 0 mm 42 W/m2
18:28 5.8 °C 4 °C 1014.4 hPa WNW 3.2 km/h 12.9 km/h 88% 0 mm 35 W/m2
18:34 5.8 °C 3.9 °C 1014.4 hPa WNW 4.8 km/h 8 km/h 88% 0 mm 26 W/m2
18:40 5.7 °C 3.9 °C 1014.8 hPa WNW 4.8 km/h 8 km/h 88% 0 mm 21 W/m2
18:46 5.7 °C 3.9 °C 1014.8 hPa West 3.2 km/h 8 km/h 88% 0 mm 16 W/m2
18:52 5.7 °C 3.9 °C 1014.8 hPa NW 3.2 km/h 3.2 km/h 88% 0 mm 11 W/m2
18:58 5.7 °C 3.8 °C 1014.8 hPa WNW 3.2 km/h 4.8 km/h 88% 0 mm 7 W/m2
19:04 5.6 °C 3.8 °C 1014.8 hPa WNW 3.2 km/h 6.4 km/h 88% 0 mm 5 W/m2
19:10 5.6 °C 3.7 °C 1015.1 hPa NW 4.8 km/h 4.8 km/h 88% 0 mm 0 W/m2
19:16 5.5 °C 3.7 °C 1015.1 hPa NW 3.2 km/h 6.4 km/h 88% 0 mm 0 W/m2
19:22 5.4 °C 3.6 °C 1015.1 hPa NW 4.8 km/h 11.3 km/h 88% 0 mm 0 W/m2
19:28 5.4 °C 3.6 °C 1015.1 hPa WNW 4.8 km/h 11.3 km/h 88% 0 mm 0 W/m2
19:34 5.4 °C 3.6 °C 1015.5 hPa NW 4.8 km/h 6.4 km/h 88% 0 mm 0 W/m2
19:40 5.3 °C 3.4 °C 1015.5 hPa NW 6.4 km/h 6.4 km/h 88% 0 mm 0 W/m2
19:46 5.2 °C 3.4 °C 1015.8 hPa NNW 6.4 km/h 8 km/h 88% 0 mm 0 W/m2
19:52 5.2 °C 3.5 °C 1015.8 hPa NW 6.4 km/h 8 km/h 89% 0 mm 0 W/m2
19:58 5.1 °C 3.4 °C 1015.8 hPa NNW 8 km/h 12.9 km/h 89% 0 mm 0 W/m2
20:04 5.1 °C 3.4 °C 1016.1 hPa WNW 8 km/h 16.1 km/h 89% 0 mm 0 W/m2
20:10 5 °C 3.3 °C 1016.1 hPa NNW 8 km/h 8 km/h 89% 0 mm 0 W/m2
20:16 4.9 °C 3.2 °C 1016.1 hPa NNW 6.4 km/h 8 km/h 89% 0 mm 0 W/m2
20:22 4.8 °C 3.2 °C 1016.1 hPa NNE 8 km/h 12.9 km/h 89% 0 mm 0 W/m2
20:28 4.8 °C 3.2 °C 1016.5 hPa North 8 km/h 14.5 km/h 89% 0 mm 0 W/m2
20:34 4.8 °C 3.2 °C 1016.8 hPa North 8 km/h 8 km/h 89% 0 mm 0 W/m2
20:40 4.8 °C 3.2 °C 1016.8 hPa NW 6.4 km/h 6.4 km/h 89% 0 mm 0 W/m2
20:46 4.9 °C 3.2 °C 1016.8 hPa NW 6.4 km/h 8 km/h 89% 0 mm 0 W/m2
20:52 4.8 °C 3 °C 1017.2 hPa NNW 4.8 km/h 8 km/h 88% 0 mm 0 W/m2
20:58 4.8 °C 3 °C 1017.2 hPa NW 6.4 km/h 8 km/h 88% 0 mm 0 W/m2
21:04 4.8 °C 2.9 °C 1017.2 hPa NW 6.4 km/h 6.4 km/h 88% 0 mm 0 W/m2
21:10 4.8 °C 2.9 °C 1017.5 hPa NNW 6.4 km/h 8 km/h 88% 0 mm 0 W/m2
21:16 4.7 °C 2.7 °C 1017.5 hPa North 8 km/h 9.7 km/h 87% 0 mm 0 W/m2
21:22 4.7 °C 2.7 °C 1017.5 hPa NNW 8 km/h 8 km/h 87% 0 mm 0 W/m2
21:28 4.7 °C 2.7 °C 1017.8 hPa NW 8 km/h 8 km/h 87% 0 mm 0 W/m2
21:34 4.7 °C 2.5 °C 1017.8 hPa North 6.4 km/h 6.4 km/h 86% 0 mm 0 W/m2
21:40 4.7 °C 2.5 °C 1017.8 hPa North 4.8 km/h 4.8 km/h 86% 0 mm 0 W/m2
21:46 4.7 °C 2.3 °C 1017.8 hPa NW 6.4 km/h 11.3 km/h 85% 0 mm 0 W/m2
21:52 4.7 °C 2.3 °C 1017.8 hPa NNW 6.4 km/h 6.4 km/h 85% 0 mm 0 W/m2
21:58 4.7 °C 2.2 °C 1017.8 hPa North 6.4 km/h 6.4 km/h 84% 0 mm 0 W/m2
22:04 4.7 °C 2.2 °C 1017.8 hPa NNW 6.4 km/h 11.3 km/h 84% 0 mm 0 W/m2
22:10 4.7 °C 2.2 °C 1017.8 hPa NW 6.4 km/h 6.4 km/h 84% 0 mm 0 W/m2
22:16 4.7 °C 2.2 °C 1018.2 hPa North 8 km/h 9.7 km/h 84% 0 mm 0 W/m2
22:22 4.7 °C 2.2 °C 1018.2 hPa North 8 km/h 14.5 km/h 84% 0 mm 0 W/m2
22:28 4.7 °C 2 °C 1017.8 hPa North 8 km/h 14.5 km/h 83% 0 mm 0 W/m2
22:34 4.7 °C 2 °C 1018.2 hPa NNW 6.4 km/h 8 km/h 83% 0 mm 0 W/m2
22:40 4.7 °C 2 °C 1017.8 hPa NNW 4.8 km/h 6.4 km/h 83% 0 mm 0 W/m2
22:46 4.6 °C 1.9 °C 1018.2 hPa NNW 4.8 km/h 6.4 km/h 83% 0 mm 0 W/m2
22:52 4.6 °C 1.9 °C 1017.8 hPa NNW 1.6 km/h 3.2 km/h 83% 0 mm 0 W/m2
22:58 4.6 °C 1.9 °C 1017.8 hPa NNW 1.6 km/h 3.2 km/h 83% 0 mm 0 W/m2
23:04 4.4 °C 1.8 °C 1018.2 hPa NNW 1.6 km/h 1.6 km/h 83% 0 mm 0 W/m2
23:10 4.3 °C 1.9 °C 1018.2 hPa Calm     84% 0 mm 0 W/m2
23:16 4.3 °C 1.8 °C 1018.5 hPa Calm   1.6 km/h 84% 0 mm 0 W/m2
23:22 4.2 °C 1.9 °C 1018.5 hPa Calm     85% 0 mm 0 W/m2
23:28 4.2 °C 1.9 °C 1018.2 hPa Calm   3.2 km/h 85% 0 mm 0 W/m2
23:34 4.2 °C 1.8 °C 1018.5 hPa NNW 1.6 km/h 3.2 km/h 84% 0 mm 0 W/m2
23:40 4.2 °C 1.7 °C 1018.2 hPa NNW 1.6 km/h 3.2 km/h 84% 0 mm 0 W/m2
23:46 4.1 °C 1.7 °C 1018.5 hPa NNW 1.6 km/h 3.2 km/h 84% 0 mm 0 W/m2
23:52 4.1 °C 1.8 °C 1018.5 hPa Calm     85% 0 mm 0 W/m2
23:58 4.1 °C 1.8 °C 1018.5 hPa Calm   4.8 km/h 85% 0 mm 0 W/m2
Country Meadow, Clay, NY, USA
Compliments of Weather Underground - 2 mb